Time;durP1;ratioP1;P1;durP2;ratioP2;P2;SDS_P1;SDS_P2;PMS_P1;PMS_P2;Temp;Humidity;BMP_temperature;BMP_pressure;BME280_temperature;BME280_humidity;BME280_pressure;Samples;Min_cycle;Max_cycle;Signal;HPM_P1;HPM_P2
2021/04/24 00:00:43;;;;;;;;;;;18.00;42.00;;;;;;505422;235;1097;-45
2021/04/24 00:02:45;;;;;;;;;;;18.00;41.90;;;;;;505338;235;1179;-45
2021/04/24 00:04:46;;;;;;;;;;;18.00;41.90;;;;;;505515;235;1056;-44
2021/04/24 00:06:47;;;;;;;;;;;18.00;41.90;;;;;;505365;235;1061;-45
2021/04/24 00:08:49;;;;;;;;;;;18.00;41.80;;;;;;505615;235;1047;-45
2021/04/24 00:10:50;;;;;;;;;;;18.00;41.90;;;;;;505381;235;1175;-45
2021/04/24 00:12:51;;;;;;;;;;;18.00;42.00;;;;;;504939;235;1504;-45
2021/04/24 00:14:52;;;;;;;;;;;18.00;42.00;;;;;;505819;235;1085;-45
2021/04/24 00:16:54;;;;;;;;;;;18.00;41.90;;;;;;505623;234;1243;-45
2021/04/24 00:18:55;;;;;;;;;;;18.00;42.00;;;;;;505758;235;2197;-45
2021/04/24 00:20:56;;;;;;;;;;;17.90;42.00;;;;;;505738;235;1039;-45
2021/04/24 00:22:57;;;;;;;;;;;17.90;42.00;;;;;;505767;235;1031;-45
2021/04/24 00:24:59;;;;;;;;;;;17.90;42.00;;;;;;505828;235;1289;-44
2021/04/24 00:27:00;;;;;;;;;;;18.10;41.80;;;;;;505893;235;1080;-45
2021/04/24 00:29:01;;;;;;;;;;;18.40;41.20;;;;;;505788;235;1059;-45
2021/04/24 00:31:03;;;;;;;;;;;18.70;40.30;;;;;;505445;235;1009;-45
2021/04/24 00:33:04;;;;;;;;;;;19.00;39.70;;;;;;505447;235;1174;-45
2021/04/24 00:35:05;;;;;;;;;;;19.20;39.20;;;;;;505280;235;1049;-45
2021/04/24 00:37:06;;;;;;;;;;;19.30;38.90;;;;;;505359;235;974;-45
2021/04/24 00:39:08;;;;;;;;;;;19.50;38.70;;;;;;505685;235;2177;-45
2021/04/24 00:41:09;;;;;;;;;;;19.60;38.60;;;;;;505822;235;1045;-45
2021/04/24 00:43:10;;;;;;;;;;;19.70;38.40;;;;;;505334;235;998;-45
2021/04/24 00:45:12;;;;;;;;;;;19.70;38.30;;;;;;505747;235;1097;-45
2021/04/24 00:47:13;;;;;;;;;;;19.80;38.20;;;;;;505513;235;1319;-45
2021/04/24 00:49:14;;;;;;;;;;;19.80;38.10;;;;;;505390;235;1047;-45
2021/04/24 00:51:15;;;;;;;;;;;19.90;37.90;;;;;;505411;235;1071;-45
2021/04/24 00:53:17;;;;;;;;;;;19.90;37.80;;;;;;505331;235;1123;-45
2021/04/24 00:55:18;;;;;;;;;;;20.00;37.90;;;;;;505819;235;1080;-45
2021/04/24 00:57:20;;;;;;;;;;;20.00;37.70;;;;;;505669;235;1081;-45
2021/04/24 00:59:21;;;;;;;;;;;20.00;37.70;;;;;;505876;235;2182;-45
2021/04/24 01:01:23;;;;;;;;;;;20.10;37.60;;;;;;505560;234;1040;-45
2021/04/24 01:03:24;;;;;;;;;;;20.10;37.50;;;;;;505327;235;1185;-45
2021/04/24 01:05:25;;;;;;;;;;;20.10;37.40;;;;;;505679;235;1049;-45
2021/04/24 01:07:27;;;;;;;;;;;20.20;37.40;;;;;;505528;235;1099;-45
2021/04/24 01:09:28;;;;;;;;;;;20.20;37.40;;;;;;505477;235;1297;-45
2021/04/24 01:11:29;;;;;;;;;;;20.20;37.30;;;;;;505546;235;1044;-45
2021/04/24 01:13:30;;;;;;;;;;;20.30;37.20;;;;;;505894;235;1045;-45
2021/04/24 01:15:32;;;;;;;;;;;20.30;37.20;;;;;;505706;235;1060;-45
2021/04/24 01:17:33;;;;;;;;;;;20.30;37.10;;;;;;505493;234;1171;-45
2021/04/24 01:19:34;;;;;;;;;;;20.30;37.20;;;;;;505367;235;2151;-45
2021/04/24 01:21:35;;;;;;;;;;;20.40;37.10;;;;;;505436;235;1078;-45
2021/04/24 01:23:37;;;;;;;;;;;20.40;37.10;;;;;;505775;235;1033;-45
2021/04/24 01:25:38;;;;;;;;;;;20.40;37.10;;;;;;505829;235;1055;-45
2021/04/24 01:27:39;;;;;;;;;;;20.40;37.00;;;;;;505410;235;1047;-45
2021/04/24 01:29:41;;;;;;;;;;;20.50;37.00;;;;;;505575;235;1082;-45
2021/04/24 01:31:42;;;;;;;;;;;20.50;37.00;;;;;;505769;235;1072;-45
2021/04/24 01:33:44;;;;;;;;;;;20.50;37.00;;;;;;505279;235;1273;-45
2021/04/24 01:35:45;;;;;;;;;;;20.50;36.90;;;;;;505307;235;1068;-45
2021/04/24 01:37:46;;;;;;;;;;;20.50;36.80;;;;;;505792;235;1206;-45
2021/04/24 01:39:48;;;;;;;;;;;20.60;36.90;;;;;;505395;234;2190;-45
2021/04/24 01:41:49;;;;;;;;;;;20.60;36.90;;;;;;505511;235;957;-45
2021/04/24 01:43:50;;;;;;;;;;;20.60;36.80;;;;;;505419;235;1023;-45
2021/04/24 01:45:51;;;;;;;;;;;20.60;36.80;;;;;;505447;235;1210;-45
2021/04/24 01:47:54;;;;;;;;;;;20.60;36.70;;;;;;505361;235;1239;-45
2021/04/24 01:49:55;;;;;;;;;;;20.70;36.70;;;;;;505437;235;1041;-45
2021/04/24 01:51:56;;;;;;;;;;;20.70;36.70;;;;;;505305;235;1064;-45
2021/04/24 01:53:57;;;;;;;;;;;20.70;36.70;;;;;;505255;235;1054;-45
2021/04/24 01:56:00;;;;;;;;;;;20.70;36.70;;;;;;505339;235;1117;-45
2021/04/24 01:58:00;;;;;;;;;;;20.70;36.60;;;;;;505346;235;2326;-45
2021/04/24 02:00:01;;;;;;;;;;;20.80;36.70;;;;;;505379;235;2189;-45
2021/04/24 02:02:02;;;;;;;;;;;20.70;36.60;;;;;;505361;234;1566;-45
2021/04/24 02:04:04;;;;;;;;;;;20.80;36.60;;;;;;505481;235;1166;-45
2021/04/24 02:06:05;;;;;;;;;;;20.80;36.60;;;;;;505601;235;1012;-45
2021/04/24 02:08:06;;;;;;;;;;;20.80;36.50;;;;;;505480;235;1167;-45
2021/04/24 02:10:09;;;;;;;;;;;20.80;36.50;;;;;;505759;235;1107;-45
2021/04/24 02:12:10;;;;;;;;;;;20.80;36.50;;;;;;505688;235;1044;-45
2021/04/24 02:14:12;;;;;;;;;;;20.80;36.50;;;;;;505586;235;1051;-45
2021/04/24 02:16:13;;;;;;;;;;;20.90;36.50;;;;;;505653;235;1066;-45
2021/04/24 02:18:14;;;;;;;;;;;20.90;36.50;;;;;;505657;235;1168;-45
2021/04/24 02:20:15;;;;;;;;;;;20.90;36.50;;;;;;505754;235;2130;-45
2021/04/24 02:22:17;;;;;;;;;;;20.90;36.50;;;;;;505845;235;1102;-45
2021/04/24 02:24:18;;;;;;;;;;;20.90;36.40;;;;;;505665;235;1091;-45
2021/04/24 02:26:20;;;;;;;;;;;20.90;36.50;;;;;;505634;235;1509;-45
2021/04/24 02:28:21;;;;;;;;;;;20.90;36.50;;;;;;505523;235;1397;-45
2021/04/24 02:30:22;;;;;;;;;;;20.90;36.40;;;;;;505273;235;1087;-45
2021/04/24 02:32:24;;;;;;;;;;;20.90;36.40;;;;;;505324;235;1173;-45
2021/04/24 02:34:25;;;;;;;;;;;20.90;36.40;;;;;;505488;235;1119;-45
2021/04/24 02:36:26;;;;;;;;;;;21.00;36.40;;;;;;505685;235;1090;-45
2021/04/24 02:38:27;;;;;;;;;;;21.00;36.40;;;;;;505910;235;1032;-45
2021/04/24 02:40:29;;;;;;;;;;;21.00;36.40;;;;;;505478;235;2193;-45
2021/04/24 02:42:30;;;;;;;;;;;21.00;36.40;;;;;;505723;235;1036;-45
2021/04/24 02:44:31;;;;;;;;;;;21.00;36.40;;;;;;505870;235;1079;-45
2021/04/24 02:46:32;;;;;;;;;;;21.00;36.40;;;;;;505577;234;1042;-45
2021/04/24 02:48:34;;;;;;;;;;;21.00;36.40;;;;;;505836;231;1270;-45
2021/04/24 02:50:35;;;;;;;;;;;21.00;36.40;;;;;;505614;235;1073;-45
2021/04/24 02:52:36;;;;;;;;;;;21.00;36.40;;;;;;505363;235;1061;-45
2021/04/24 02:54:38;;;;;;;;;;;21.00;36.40;;;;;;505248;235;1294;-45
2021/04/24 02:56:39;;;;;;;;;;;21.00;36.40;;;;;;505516;235;1205;-45
2021/04/24 02:58:40;;;;;;;;;;;21.00;36.40;;;;;;505288;235;1052;-45
2021/04/24 03:00:41;;;;;;;;;;;21.00;36.40;;;;;;505805;235;2193;-45
2021/04/24 03:02:43;;;;;;;;;;;21.00;36.30;;;;;;505487;235;1023;-45
2021/04/24 03:04:44;;;;;;;;;;;21.10;36.40;;;;;;505518;235;1271;-45
2021/04/24 03:06:45;;;;;;;;;;;21.00;36.30;;;;;;505387;235;1078;-45
2021/04/24 03:08:46;;;;;;;;;;;21.10;36.30;;;;;;505686;235;1076;-45
2021/04/24 03:10:50;;;;;;;;;;;21.10;36.30;;;;;;505382;235;1061;-45
2021/04/24 03:12:51;;;;;;;;;;;21.10;36.40;;;;;;505445;235;1079;-45
2021/04/24 03:14:53;;;;;;;;;;;21.10;36.30;;;;;;505507;235;1044;-45
2021/04/24 03:16:54;;;;;;;;;;;21.10;36.30;;;;;;505843;235;1070;-45
2021/04/24 03:18:55;;;;;;;;;;;21.10;36.30;;;;;;505792;235;1142;-45
2021/04/24 03:20:57;;;;;;;;;;;21.10;36.30;;;;;;505848;235;2125;-45
2021/04/24 03:23:00;;;;;;;;;;;21.10;36.30;;;;;;505391;235;1076;-45
2021/04/24 03:25:00;;;;;;;;;;;21.20;36.30;;;;;;505282;236;2523;-45
2021/04/24 03:27:01;;;;;;;;;;;21.10;36.20;;;;;;505507;235;1061;-45
2021/04/24 03:29:02;;;;;;;;;;;21.20;36.30;;;;;;505628;235;1060;-45
2021/04/24 03:31:04;;;;;;;;;;;21.20;36.30;;;;;;505320;235;1163;-45
2021/04/24 03:33:05;;;;;;;;;;;21.20;36.30;;;;;;505928;235;1024;-45
2021/04/24 03:35:06;;;;;;;;;;;21.20;36.30;;;;;;505334;235;1072;-45
2021/04/24 03:37:08;;;;;;;;;;;21.20;36.20;;;;;;505676;235;1238;-45
2021/04/24 03:39:09;;;;;;;;;;;21.20;36.20;;;;;;505864;235;1144;-45
2021/04/24 03:41:10;;;;;;;;;;;21.20;36.20;;;;;;505600;235;2192;-45
2021/04/24 03:43:11;;;;;;;;;;;21.20;36.20;;;;;;505734;235;1157;-45
2021/04/24 03:45:20;;;;;;;;;;;21.20;36.20;;;;;;505845;235;1061;-45
2021/04/24 03:47:20;;;;;;;;;;;21.20;36.20;;;;;;505849;235;1508;-45
2021/04/24 03:49:22;;;;;;;;;;;21.20;36.10;;;;;;505481;235;1140;-45
2021/04/24 03:51:23;;;;;;;;;;;21.30;36.20;;;;;;505443;235;1043;-45
2021/04/24 03:53:24;;;;;;;;;;;21.30;36.10;;;;;;505316;235;1057;-45
2021/04/24 03:55:25;;;;;;;;;;;21.30;36.10;;;;;;505386;235;1035;-45
2021/04/24 03:57:27;;;;;;;;;;;21.30;36.20;;;;;;505768;235;1038;-45
2021/04/24 03:59:28;;;;;;;;;;;21.30;36.10;;;;;;505414;235;1073;-45
2021/04/24 04:01:29;;;;;;;;;;;21.30;36.10;;;;;;505350;235;2193;-45
2021/04/24 04:03:30;;;;;;;;;;;21.30;36.10;;;;;;505848;235;1044;-45
2021/04/24 04:05:32;;;;;;;;;;;21.30;36.20;;;;;;505255;235;1187;-45
2021/04/24 04:07:33;;;;;;;;;;;21.30;36.20;;;;;;505688;235;1058;-45
2021/04/24 04:09:34;;;;;;;;;;;21.30;36.10;;;;;;505761;235;1225;-45
2021/04/24 04:11:36;;;;;;;;;;;21.30;36.10;;;;;;505363;235;1019;-45
2021/04/24 04:13:37;;;;;;;;;;;21.30;36.10;;;;;;505426;234;1072;-45
2021/04/24 04:15:38;;;;;;;;;;;21.30;36.10;;;;;;505784;235;1051;-45
2021/04/24 04:17:39;;;;;;;;;;;21.30;36.10;;;;;;505440;235;1084;-45
2021/04/24 04:19:41;;;;;;;;;;;21.30;36.10;;;;;;505291;235;1274;-45
2021/04/24 04:21:42;;;;;;;;;;;21.30;36.10;;;;;;505409;235;2177;-45
2021/04/24 04:23:43;;;;;;;;;;;21.30;36.10;;;;;;505695;235;1044;-45
2021/04/24 04:25:45;;;;;;;;;;;21.30;36.10;;;;;;505386;235;1057;-45
2021/04/24 04:27:46;;;;;;;;;;;21.30;36.10;;;;;;505546;235;1146;-45
2021/04/24 04:29:47;;;;;;;;;;;21.30;36.10;;;;;;505302;235;1028;-45
2021/04/24 04:31:48;;;;;;;;;;;21.40;36.10;;;;;;505853;234;1681;-45
2021/04/24 04:33:50;;;;;;;;;;;21.40;36.20;;;;;;505386;235;1052;-45
2021/04/24 04:35:51;;;;;;;;;;;21.40;36.20;;;;;;505370;234;1173;-45
2021/04/24 04:37:52;;;;;;;;;;;21.40;36.20;;;;;;505350;235;1468;-45
2021/04/24 04:39:54;;;;;;;;;;;21.30;36.10;;;;;;505546;235;1075;-45
2021/04/24 04:41:55;;;;;;;;;;;21.40;36.20;;;;;;505299;235;2122;-45
2021/04/24 04:43:56;;;;;;;;;;;21.40;36.20;;;;;;505441;235;1039;-45
2021/04/24 04:45:58;;;;;;;;;;;21.40;36.20;;;;;;505430;235;1082;-45
2021/04/24 04:47:59;;;;;;;;;;;21.40;36.20;;;;;;505434;235;1194;-45
2021/04/24 04:50:00;;;;;;;;;;;21.40;36.20;;;;;;505363;234;1102;-45
2021/04/24 04:52:02;;;;;;;;;;;21.40;36.10;;;;;;505806;235;1053;-45
2021/04/24 04:54:03;;;;;;;;;;;21.40;36.10;;;;;;505507;235;1048;-45
2021/04/24 04:56:04;;;;;;;;;;;21.30;36.20;;;;;;505834;235;1014;-45
2021/04/24 04:58:05;;;;;;;;;;;21.50;36.10;;;;;;505428;235;1017;-45
2021/04/24 05:00:07;;;;;;;;;;;21.20;36.30;;;;;;505520;235;1050;-45
2021/04/24 05:02:08;;;;;;;;;;;20.70;37.20;;;;;;505623;235;2181;-45
2021/04/24 05:04:09;;;;;;;;;;;20.20;38.10;;;;;;505310;235;1064;-45
2021/04/24 05:06:10;;;;;;;;;;;19.90;38.90;;;;;;505590;235;1289;-45
2021/04/24 05:08:12;;;;;;;;;;;19.60;39.40;;;;;;505849;235;1438;-45
2021/04/24 05:10:13;;;;;;;;;;;19.50;39.90;;;;;;505653;235;1081;-45
2021/04/24 05:12:14;;;;;;;;;;;19.30;40.20;;;;;;505430;235;1185;-45
2021/04/24 05:14:16;;;;;;;;;;;19.20;40.40;;;;;;505465;235;1035;-45
2021/04/24 05:16:17;;;;;;;;;;;19.10;40.60;;;;;;505778;235;1214;-45
2021/04/24 05:18:18;;;;;;;;;;;19.10;40.80;;;;;;505823;235;1110;-45
2021/04/24 05:20:19;;;;;;;;;;;19.00;40.80;;;;;;505449;235;1058;-45
2021/04/24 05:22:21;;;;;;;;;;;18.90;40.90;;;;;;505203;235;2189;-45
2021/04/24 05:24:23;;;;;;;;;;;18.90;41.10;;;;;;505299;235;1044;-45
2021/04/24 05:26:24;;;;;;;;;;;18.80;41.10;;;;;;505538;235;1212;-45
2021/04/24 05:28:25;;;;;;;;;;;18.80;41.20;;;;;;505626;235;1036;-45
2021/04/24 05:30:27;;;;;;;;;;;18.70;41.20;;;;;;505786;235;1072;-45
2021/04/24 05:32:28;;;;;;;;;;;18.70;41.20;;;;;;505334;235;1045;-45
2021/04/24 05:34:29;;;;;;;;;;;18.70;41.30;;;;;;505190;235;1230;-45
2021/04/24 05:36:30;;;;;;;;;;;18.70;41.30;;;;;;505319;235;1270;-45
2021/04/24 05:38:32;;;;;;;;;;;18.70;41.30;;;;;;505692;235;1179;-45
2021/04/24 05:40:33;;;;;;;;;;;18.70;41.40;;;;;;505212;235;2197;-45
2021/04/24 05:42:34;;;;;;;;;;;18.70;41.30;;;;;;505349;235;1031;-45
2021/04/24 05:44:36;;;;;;;;;;;18.70;41.30;;;;;;505753;235;1059;-45
2021/04/24 05:46:37;;;;;;;;;;;18.70;41.20;;;;;;505362;235;1044;-45
2021/04/24 05:48:38;;;;;;;;;;;18.70;41.10;;;;;;505506;235;986;-45
2021/04/24 05:50:39;;;;;;;;;;;18.70;41.20;;;;;;505391;235;1066;-45
2021/04/24 05:52:41;;;;;;;;;;;18.70;41.20;;;;;;505286;235;1194;-45
2021/04/24 05:54:43;;;;;;;;;;;18.70;41.20;;;;;;505312;235;1075;-45
2021/04/24 05:56:44;;;;;;;;;;;18.70;41.00;;;;;;505463;235;2295;-45
2021/04/24 05:58:45;;;;;;;;;;;18.70;41.10;;;;;;505783;235;1070;-45
2021/04/24 06:00:46;;;;;;;;;;;18.60;41.10;;;;;;505647;235;2193;-44
2021/04/24 06:02:48;;;;;;;;;;;18.60;41.20;;;;;;505492;235;1151;-45
2021/04/24 06:04:49;;;;;;;;;;;18.60;41.30;;;;;;505209;235;1185;-45
2021/04/24 06:06:50;;;;;;;;;;;18.50;41.40;;;;;;505384;235;1167;-44
2021/04/24 06:08:52;;;;;;;;;;;18.40;41.50;;;;;;505494;235;1082;-45
2021/04/24 06:10:53;;;;;;;;;;;18.40;41.60;;;;;;505247;235;1092;-45
2021/04/24 06:12:54;;;;;;;;;;;18.50;41.50;;;;;;505733;235;1078;-45
2021/04/24 06:14:56;;;;;;;;;;;18.50;41.50;;;;;;505274;235;1174;-45
2021/04/24 06:16:58;;;;;;;;;;;18.40;41.50;;;;;;505309;234;1133;-45
2021/04/24 06:18:58;;;;;;;;;;;18.40;41.50;;;;;;505350;235;2130;-45
2021/04/24 06:20:59;;;;;;;;;;;18.40;41.50;;;;;;505657;235;2189;-45
2021/04/24 06:23:01;;;;;;;;;;;18.50;41.40;;;;;;505285;235;2008;-45
2021/04/24 06:25:02;;;;;;;;;;;18.50;41.40;;;;;;505742;235;1139;-45
2021/04/24 06:27:03;;;;;;;;;;;18.40;41.40;;;;;;505306;235;1200;-45
2021/04/24 06:29:04;;;;;;;;;;;18.40;41.40;;;;;;505778;235;1064;-45
2021/04/24 06:31:06;;;;;;;;;;;18.40;41.40;;;;;;505400;235;1681;-45
2021/04/24 06:33:07;;;;;;;;;;;18.40;41.40;;;;;;505097;234;1362;-45
2021/04/24 06:35:09;;;;;;;;;;;18.40;41.40;;;;;;505407;235;1095;-45
2021/04/24 06:37:10;;;;;;;;;;;18.40;41.40;;;;;;505346;235;1366;-45
2021/04/24 06:39:11;;;;;;;;;;;18.40;41.40;;;;;;505529;235;1007;-45
2021/04/24 06:41:12;;;;;;;;;;;18.40;41.40;;;;;;505290;235;2177;-45
2021/04/24 06:43:14;;;;;;;;;;;18.40;41.30;;;;;;505587;235;1077;-45
2021/04/24 06:45:15;;;;;;;;;;;18.40;41.30;;;;;;505385;235;1091;-45
2021/04/24 06:47:17;;;;;;;;;;;18.40;41.40;;;;;;505751;235;1048;-45
2021/04/24 06:49:18;;;;;;;;;;;18.30;41.30;;;;;;505452;235;1055;-45
2021/04/24 06:51:19;;;;;;;;;;;18.40;41.40;;;;;;505266;235;1124;-45
2021/04/24 06:53:21;;;;;;;;;;;18.40;41.40;;;;;;505436;235;1069;-45
2021/04/24 06:55:23;;;;;;;;;;;18.40;41.30;;;;;;505359;235;1148;-45
2021/04/24 06:57:23;;;;;;;;;;;18.40;41.40;;;;;;505248;236;2357;-45
2021/04/24 06:59:24;;;;;;;;;;;18.30;41.40;;;;;;505588;235;1034;-45
2021/04/24 07:01:26;;;;;;;;;;;18.30;41.40;;;;;;505586;234;2122;-45
2021/04/24 07:03:27;;;;;;;;;;;18.30;41.40;;;;;;505434;235;1192;-45
2021/04/24 07:05:28;;;;;;;;;;;18.30;41.40;;;;;;505498;235;1038;-45
2021/04/24 07:07:29;;;;;;;;;;;18.30;41.50;;;;;;505266;235;1201;-45
2021/04/24 07:09:31;;;;;;;;;;;18.20;41.50;;;;;;505479;235;1187;-45
2021/04/24 07:11:32;;;;;;;;;;;18.30;41.40;;;;;;505823;235;1022;-45
2021/04/24 07:13:33;;;;;;;;;;;18.30;41.40;;;;;;505809;234;1137;-45
2021/04/24 07:15:34;;;;;;;;;;;18.30;41.40;;;;;;505473;235;1035;-44
2021/04/24 07:17:36;;;;;;;;;;;18.30;41.40;;;;;;505314;235;971;-47
2021/04/24 07:19:37;;;;;;;;;;;18.30;41.40;;;;;;505522;235;1127;-45
2021/04/24 07:21:38;;;;;;;;;;;18.20;41.40;;;;;;505299;235;2185;-45
2021/04/24 07:23:41;;;;;;;;;;;18.20;41.50;;;;;;505423;235;1301;-45
2021/04/24 07:25:41;;;;;;;;;;;18.30;41.40;;;;;;505476;235;2323;-45
2021/04/24 07:27:43;;;;;;;;;;;18.20;41.40;;;;;;505212;236;1053;-45
2021/04/24 07:29:44;;;;;;;;;;;18.20;41.50;;;;;;505501;235;1088;-45
2021/04/24 07:31:46;;;;;;;;;;;18.20;41.60;;;;;;505861;235;996;-45
2021/04/24 07:33:46;;;;;;;;;;;18.10;41.60;;;;;;505319;235;2024;-45
2021/04/24 07:35:48;;;;;;;;;;;18.20;41.50;;;;;;505809;235;1073;-45
2021/04/24 07:37:49;;;;;;;;;;;18.20;41.60;;;;;;505787;235;1193;-45
2021/04/24 07:39:50;;;;;;;;;;;18.10;41.60;;;;;;505788;235;1408;-45
2021/04/24 07:41:52;;;;;;;;;;;18.10;41.60;;;;;;505257;235;2138;-45
2021/04/24 07:43:53;;;;;;;;;;;18.10;41.50;;;;;;505904;235;1018;-45
2021/04/24 07:45:54;;;;;;;;;;;18.10;41.60;;;;;;505299;235;1064;-45
2021/04/24 07:47:55;;;;;;;;;;;18.10;41.60;;;;;;505834;235;1033;-45
2021/04/24 07:49:57;;;;;;;;;;;18.10;41.60;;;;;;505877;235;1030;-45
2021/04/24 07:51:58;;;;;;;;;;;18.10;41.70;;;;;;505360;235;1080;-45
2021/04/24 07:53:59;;;;;;;;;;;18.10;41.60;;;;;;505537;235;1150;-45
2021/04/24 07:56:00;;;;;;;;;;;18.10;41.50;;;;;;505853;235;1023;-45
2021/04/24 07:58:02;;;;;;;;;;;18.10;41.60;;;;;;505349;235;1034;-45
2021/04/24 08:00:03;;;;;;;;;;;18.10;41.70;;;;;;505388;235;1094;-44
2021/04/24 08:02:04;;;;;;;;;;;18.10;41.70;;;;;;505514;235;2194;-45
2021/04/24 08:04:05;;;;;;;;;;;18.10;41.70;;;;;;505482;234;1116;-45
2021/04/24 08:06:07;;;;;;;;;;;18.00;41.70;;;;;;505275;235;1100;-45
2021/04/24 08:08:08;;;;;;;;;;;18.00;41.70;;;;;;505564;235;1212;-45
2021/04/24 08:10:09;;;;;;;;;;;18.10;41.60;;;;;;505709;235;1084;-45
2021/04/24 08:12:11;;;;;;;;;;;18.00;41.60;;;;;;505538;235;1052;-45
2021/04/24 08:14:12;;;;;;;;;;;18.00;41.70;;;;;;505362;235;1115;-45
2021/04/24 08:16:13;;;;;;;;;;;18.00;41.70;;;;;;505361;235;1118;-45
2021/04/24 08:18:15;;;;;;;;;;;18.00;41.70;;;;;;505618;235;1053;-45
2021/04/24 08:20:16;;;;;;;;;;;18.10;41.60;;;;;;505757;235;1101;-45
2021/04/24 08:22:17;;;;;;;;;;;18.10;41.50;;;;;;505530;235;2189;-45
2021/04/24 08:24:18;;;;;;;;;;;18.00;41.60;;;;;;505249;235;1103;-45
2021/04/24 08:26:20;;;;;;;;;;;18.00;41.70;;;;;;505228;235;1032;-45
2021/04/24 08:28:21;;;;;;;;;;;18.00;41.70;;;;;;505475;235;1047;-45
2021/04/24 08:30:23;;;;;;;;;;;18.00;41.70;;;;;;505480;235;1111;-45
2021/04/24 08:32:24;;;;;;;;;;;18.00;41.70;;;;;;505817;235;1043;-45
2021/04/24 08:34:26;;;;;;;;;;;18.00;41.70;;;;;;505529;235;1107;-45
2021/04/24 08:36:26;;;;;;;;;;;18.00;41.70;;;;;;505175;235;1611;-44
2021/04/24 08:38:28;;;;;;;;;;;17.90;41.70;;;;;;505779;235;1156;-45
2021/04/24 08:40:29;;;;;;;;;;;18.00;41.80;;;;;;505273;235;1026;-45
2021/04/24 08:42:30;;;;;;;;;;;18.00;41.70;;;;;;505789;235;2182;-45
2021/04/24 08:44:32;;;;;;;;;;;18.00;41.70;;;;;;505249;235;1110;-44
2021/04/24 08:46:33;;;;;;;;;;;18.00;41.60;;;;;;505374;235;1063;-45
2021/04/24 08:48:34;;;;;;;;;;;17.90;41.70;;;;;;505277;235;1083;-45
2021/04/24 08:50:35;;;;;;;;;;;18.00;41.70;;;;;;505530;235;1092;-45
2021/04/24 08:52:37;;;;;;;;;;;18.00;41.60;;;;;;505466;235;1117;-45
2021/04/24 08:54:38;;;;;;;;;;;18.20;41.20;;;;;;505272;235;1164;-45
2021/04/24 08:56:39;;;;;;;;;;;18.60;40.40;;;;;;505122;236;1142;-44
2021/04/24 08:58:41;;;;;;;;;;;18.90;39.70;;;;;;505540;235;1060;-45
2021/04/24 09:00:42;;;;;;;;;;;19.10;39.30;;;;;;505239;235;1079;-45
2021/04/24 09:02:43;;;;;;;;;;;19.20;39.00;;;;;;505288;235;2126;-45
2021/04/24 09:04:44;;;;;;;;;;;19.40;38.70;;;;;;505463;235;1083;-45
2021/04/24 09:06:46;;;;;;;;;;;19.50;38.50;;;;;;505689;235;1060;-45
2021/04/24 09:08:47;;;;;;;;;;;19.60;38.30;;;;;;505345;235;1070;-45
2021/04/24 09:10:48;;;;;;;;;;;19.70;38.20;;;;;;505330;235;1079;-45
2021/04/24 09:12:50;;;;;;;;;;;19.70;38.00;;;;;;505722;235;1076;-45
2021/04/24 09:14:51;;;;;;;;;;;19.80;38.00;;;;;;505734;235;1061;-45
2021/04/24 09:16:52;;;;;;;;;;;19.80;37.80;;;;;;505639;235;1090;-45
2021/04/24 09:18:53;;;;;;;;;;;19.90;37.80;;;;;;505517;235;1033;-45
2021/04/24 09:20:55;;;;;;;;;;;19.90;37.70;;;;;;505264;235;1106;-45
2021/04/24 09:22:56;;;;;;;;;;;19.90;37.60;;;;;;505761;235;2147;-45
2021/04/24 09:24:58;;;;;;;;;;;20.00;37.60;;;;;;505506;235;1209;-45
2021/04/24 09:26:59;;;;;;;;;;;20.00;37.40;;;;;;505265;235;1045;-45
2021/04/24 09:29:01;;;;;;;;;;;20.10;37.40;;;;;;505506;235;1538;-45
2021/04/24 09:31:02;;;;;;;;;;;20.10;37.40;;;;;;505545;235;1169;-45
2021/04/24 09:33:03;;;;;;;;;;;20.10;37.30;;;;;;505558;235;1044;-45
2021/04/24 09:35:04;;;;;;;;;;;20.20;37.30;;;;;;505173;235;1098;-45
2021/04/24 09:37:06;;;;;;;;;;;20.20;37.10;;;;;;505198;235;1063;-45
2021/04/24 09:39:07;;;;;;;;;;;20.20;37.00;;;;;;505807;235;1109;-45
2021/04/24 09:41:08;;;;;;;;;;;20.20;37.00;;;;;;505223;235;1214;-45
2021/04/24 09:43:10;;;;;;;;;;;20.20;37.00;;;;;;505333;235;2185;-45
2021/04/24 09:45:11;;;;;;;;;;;20.30;37.10;;;;;;505519;235;1054;-44
2021/04/24 09:47:12;;;;;;;;;;;20.30;37.10;;;;;;505411;235;1040;-45
2021/04/24 09:49:13;;;;;;;;;;;20.30;36.90;;;;;;505336;235;1089;-45
2021/04/24 09:51:15;;;;;;;;;;;20.30;37.00;;;;;;505249;235;1018;-45
2021/04/24 09:53:16;;;;;;;;;;;20.30;36.90;;;;;;505467;235;1148;-45
2021/04/24 09:55:17;;;;;;;;;;;20.40;36.90;;;;;;505237;235;1164;-45
2021/04/24 09:57:20;;;;;;;;;;;20.40;36.90;;;;;;505416;234;1205;-45
2021/04/24 09:59:21;;;;;;;;;;;20.40;36.80;;;;;;505492;235;2186;-45
2021/04/24 10:01:22;;;;;;;;;;;20.40;36.80;;;;;;505460;235;1216;-45
2021/04/24 10:03:24;;;;;;;;;;;20.40;36.70;;;;;;505428;234;2193;-45
2021/04/24 10:05:25;;;;;;;;;;;20.50;36.80;;;;;;505273;235;1110;-45
2021/04/24 10:07:26;;;;;;;;;;;20.50;36.80;;;;;;505279;235;1204;-45
2021/04/24 10:09:28;;;;;;;;;;;20.60;36.70;;;;;;505704;235;1020;-45
2021/04/24 10:11:29;;;;;;;;;;;20.50;36.60;;;;;;505155;235;1182;-45
2021/04/24 10:13:30;;;;;;;;;;;20.60;36.70;;;;;;505703;235;1129;-45
2021/04/24 10:15:31;;;;;;;;;;;20.60;36.70;;;;;;505346;235;1037;-45
2021/04/24 10:17:33;;;;;;;;;;;20.60;36.60;;;;;;505483;235;1202;-45
2021/04/24 10:19:35;;;;;;;;;;;20.60;36.60;;;;;;505438;235;1034;-45
2021/04/24 10:21:36;;;;;;;;;;;20.60;36.60;;;;;;505214;235;1062;-45
2021/04/24 10:23:38;;;;;;;;;;;20.60;36.50;;;;;;505617;235;2200;-45
2021/04/24 10:25:39;;;;;;;;;;;20.60;36.50;;;;;;505584;235;1135;-45
2021/04/24 10:27:40;;;;;;;;;;;20.60;36.50;;;;;;505271;235;1116;-45
2021/04/24 10:29:42;;;;;;;;;;;20.70;36.50;;;;;;505517;235;1202;-45
2021/04/24 10:31:43;;;;;;;;;;;20.70;36.50;;;;;;505433;235;1115;-45
2021/04/24 10:33:44;;;;;;;;;;;20.70;36.50;;;;;;505476;235;1020;-45
2021/04/24 10:35:45;;;;;;;;;;;20.70;36.40;;;;;;505319;235;1053;-45
2021/04/24 10:37:47;;;;;;;;;;;20.70;36.50;;;;;;505418;235;1113;-45
2021/04/24 10:39:48;;;;;;;;;;;20.70;36.40;;;;;;505484;235;1065;-45
2021/04/24 10:41:49;;;;;;;;;;;20.80;36.40;;;;;;505324;235;1178;-45
2021/04/24 10:43:50;;;;;;;;;;;20.80;36.40;;;;;;505844;234;2130;-45
2021/04/24 10:45:52;;;;;;;;;;;20.80;36.40;;;;;;505329;235;1026;-45
2021/04/24 10:47:54;;;;;;;;;;;20.80;36.40;;;;;;505490;234;1079;-45
2021/04/24 10:49:54;;;;;;;;;;;20.80;36.40;;;;;;505311;235;2135;-45
2021/04/24 10:51:56;;;;;;;;;;;20.80;36.40;;;;;;505418;235;1084;-45
2021/04/24 10:53:57;;;;;;;;;;;20.80;36.30;;;;;;505450;235;1030;-45
2021/04/24 10:55:58;;;;;;;;;;;20.90;36.40;;;;;;505271;235;1151;-45
2021/04/24 10:57:59;;;;;;;;;;;20.80;36.30;;;;;;505811;235;1032;-45
2021/04/24 11:00:01;;;;;;;;;;;20.90;36.40;;;;;;505471;234;1062;-45
2021/04/24 11:02:02;;;;;;;;;;;20.90;36.30;;;;;;505312;235;1058;-45
2021/04/24 11:04:03;;;;;;;;;;;20.90;36.30;;;;;;505342;235;2201;-45
2021/04/24 11:06:04;;;;;;;;;;;20.90;36.30;;;;;;505307;235;1099;-45
2021/04/24 11:08:06;;;;;;;;;;;20.90;36.30;;;;;;505342;235;1093;-45
2021/04/24 11:10:07;;;;;;;;;;;20.90;36.30;;;;;;505768;235;1037;-45
2021/04/24 11:12:08;;;;;;;;;;;20.90;36.20;;;;;;505279;235;1647;-45
2021/04/24 11:14:10;;;;;;;;;;;21.00;36.20;;;;;;505571;235;1115;-45
2021/04/24 11:16:11;;;;;;;;;;;20.90;36.20;;;;;;505511;235;2209;-45
2021/04/24 11:18:12;;;;;;;;;;;21.00;36.20;;;;;;505591;235;1516;-45
2021/04/24 11:20:13;;;;;;;;;;;21.00;36.20;;;;;;505744;235;1036;-45
2021/04/24 11:22:15;;;;;;;;;;;21.00;36.20;;;;;;505235;235;1577;-45
2021/04/24 11:24:17;;;;;;;;;;;21.00;36.20;;;;;;505444;235;2151;-45
2021/04/24 11:26:17;;;;;;;;;;;21.00;36.20;;;;;;505153;235;2341;-45
2021/04/24 11:28:20;;;;;;;;;;;21.00;36.20;;;;;;505529;235;1229;-45
2021/04/24 11:30:20;;;;;;;;;;;21.00;36.20;;;;;;505198;235;1377;-45
2021/04/24 11:32:21;;;;;;;;;;;21.00;36.20;;;;;;505288;235;1191;-45
2021/04/24 11:34:23;;;;;;;;;;;21.00;36.20;;;;;;505700;235;1048;-45
2021/04/24 11:36:25;;;;;;;;;;;21.00;36.10;;;;;;505694;235;1014;-45
2021/04/24 11:38:26;;;;;;;;;;;21.00;36.10;;;;;;505621;235;1699;-45
2021/04/24 11:40:28;;;;;;;;;;;21.00;36.20;;;;;;505500;235;1034;-45
2021/04/24 11:42:29;;;;;;;;;;;21.00;36.10;;;;;;505434;235;1199;-45
2021/04/24 11:44:31;;;;;;;;;;;21.00;36.10;;;;;;505719;235;2196;-45
2021/04/24 11:46:32;;;;;;;;;;;21.10;36.20;;;;;;505450;235;1239;-45
2021/04/24 11:48:33;;;;;;;;;;;21.10;36.20;;;;;;505540;234;1048;-45
2021/04/24 11:50:35;;;;;;;;;;;21.10;36.10;;;;;;505531;235;1053;-45
2021/04/24 11:52:36;;;;;;;;;;;21.10;36.10;;;;;;505358;235;1050;-45
2021/04/24 11:54:38;;;;;;;;;;;21.10;36.10;;;;;;505368;235;1166;-45
2021/04/24 11:56:39;;;;;;;;;;;21.10;36.10;;;;;;505307;235;1152;-45